sensor_id;sensor_type;location;lat;lon;timestamp;temperature;humidity
10344;DHT22;5217;43.960;10.954;2022-07-23T00:02:00;29.70;88.60
10344;DHT22;5217;43.960;10.954;2022-07-23T00:04:28;29.70;88.60
10344;DHT22;5217;43.960;10.954;2022-07-23T00:06:58;29.60;88.50
10344;DHT22;5217;43.960;10.954;2022-07-23T00:09:27;29.60;88.60
10344;DHT22;5217;43.960;10.954;2022-07-23T00:11:57;29.60;88.70
10344;DHT22;5217;43.960;10.954;2022-07-23T00:14:26;29.60;89.40
10344;DHT22;5217;43.960;10.954;2022-07-23T00:16:54;29.60;88.60
10344;DHT22;5217;43.960;10.954;2022-07-23T00:19:23;29.60;88.80
10344;DHT22;5217;43.960;10.954;2022-07-23T00:21:51;29.60;88.80
10344;DHT22;5217;43.960;10.954;2022-07-23T00:24:21;29.60;88.90
10344;DHT22;5217;43.960;10.954;2022-07-23T00:26:49;29.60;88.90
10344;DHT22;5217;43.960;10.954;2022-07-23T00:29:18;29.60;88.90
10344;DHT22;5217;43.960;10.954;2022-07-23T00:31:46;29.50;88.90
10344;DHT22;5217;43.960;10.954;2022-07-23T00:34:15;29.60;89.20
10344;DHT22;5217;43.960;10.954;2022-07-23T00:36:43;29.50;89.20
10344;DHT22;5217;43.960;10.954;2022-07-23T00:39:12;29.50;89.30
10344;DHT22;5217;43.960;10.954;2022-07-23T00:41:41;29.50;89.40
10344;DHT22;5217;43.960;10.954;2022-07-23T00:44:17;29.50;89.70
10344;DHT22;5217;43.960;10.954;2022-07-23T00:46:47;29.40;89.70
10344;DHT22;5217;43.960;10.954;2022-07-23T00:49:16;29.40;89.80
10344;DHT22;5217;43.960;10.954;2022-07-23T00:51:45;29.40;90.00
10344;DHT22;5217;43.960;10.954;2022-07-23T00:54:14;29.40;90.00
10344;DHT22;5217;43.960;10.954;2022-07-23T00:56:44;29.40;90.10
10344;DHT22;5217;43.960;10.954;2022-07-23T00:59:13;29.40;90.10
10344;DHT22;5217;43.960;10.954;2022-07-23T01:01:42;29.40;90.10
10344;DHT22;5217;43.960;10.954;2022-07-23T01:04:12;29.40;90.10
10344;DHT22;5217;43.960;10.954;2022-07-23T01:06:43;29.40;90.10
10344;DHT22;5217;43.960;10.954;2022-07-23T01:09:12;29.40;90.10
10344;DHT22;5217;43.960;10.954;2022-07-23T01:11:41;29.30;90.10
10344;DHT22;5217;43.960;10.954;2022-07-23T01:14:15;29.30;90.10
10344;DHT22;5217;43.960;10.954;2022-07-23T01:16:45;29.30;90.10
10344;DHT22;5217;43.960;10.954;2022-07-23T01:19:14;29.30;90.00
10344;DHT22;5217;43.960;10.954;2022-07-23T01:21:44;29.30;90.10
10344;DHT22;5217;43.960;10.954;2022-07-23T01:24:16;29.30;90.10
10344;DHT22;5217;43.960;10.954;2022-07-23T01:26:46;29.30;90.10
10344;DHT22;5217;43.960;10.954;2022-07-23T01:29:16;29.30;90.10
10344;DHT22;5217;43.960;10.954;2022-07-23T01:31:45;29.20;90.20
10344;DHT22;5217;43.960;10.954;2022-07-23T01:34:14;29.20;90.20
10344;DHT22;5217;43.960;10.954;2022-07-23T01:36:42;29.20;90.30
10344;DHT22;5217;43.960;10.954;2022-07-23T01:39:11;29.10;90.30
10344;DHT22;5217;43.960;10.954;2022-07-23T01:41:41;29.10;90.50
10344;DHT22;5217;43.960;10.954;2022-07-23T01:44:12;29.10;90.60
10344;DHT22;5217;43.960;10.954;2022-07-23T01:46:40;29.10;90.70
10344;DHT22;5217;43.960;10.954;2022-07-23T01:49:09;29.10;90.70
10344;DHT22;5217;43.960;10.954;2022-07-23T01:51:38;29.10;90.80
10344;DHT22;5217;43.960;10.954;2022-07-23T01:54:27;29.10;90.90
10344;DHT22;5217;43.960;10.954;2022-07-23T01:56:56;29.00;91.00
10344;DHT22;5217;43.960;10.954;2022-07-23T01:59:25;29.00;91.00
10344;DHT22;5217;43.960;10.954;2022-07-23T02:01:54;29.10;91.10
10344;DHT22;5217;43.960;10.954;2022-07-23T02:04:24;29.10;91.10
10344;DHT22;5217;43.960;10.954;2022-07-23T02:06:53;29.10;91.10
10344;DHT22;5217;43.960;10.954;2022-07-23T02:09:21;29.10;91.10
10344;DHT22;5217;43.960;10.954;2022-07-23T02:11:49;29.10;91.10
10344;DHT22;5217;43.960;10.954;2022-07-23T02:14:19;29.10;91.20
10344;DHT22;5217;43.960;10.954;2022-07-23T02:16:48;29.10;91.20
10344;DHT22;5217;43.960;10.954;2022-07-23T02:19:16;29.10;91.20
10344;DHT22;5217;43.960;10.954;2022-07-23T02:21:45;29.10;91.20
10344;DHT22;5217;43.960;10.954;2022-07-23T02:24:13;29.10;91.30
10344;DHT22;5217;43.960;10.954;2022-07-23T02:26:42;29.00;91.30
10344;DHT22;5217;43.960;10.954;2022-07-23T02:29:10;29.10;91.40
10344;DHT22;5217;43.960;10.954;2022-07-23T02:31:40;29.00;91.40
10344;DHT22;5217;43.960;10.954;2022-07-23T02:34:09;29.00;91.50
10344;DHT22;5217;43.960;10.954;2022-07-23T02:36:39;29.00;91.60
10344;DHT22;5217;43.960;10.954;2022-07-23T02:39:07;29.00;91.60
10344;DHT22;5217;43.960;10.954;2022-07-23T02:41:36;29.00;91.60
10344;DHT22;5217;43.960;10.954;2022-07-23T02:44:04;29.00;91.70
10344;DHT22;5217;43.960;10.954;2022-07-23T02:46:33;29.00;91.80
10344;DHT22;5217;43.960;10.954;2022-07-23T02:49:03;29.00;91.80
10344;DHT22;5217;43.960;10.954;2022-07-23T02:51:32;29.00;91.90
10344;DHT22;5217;43.960;10.954;2022-07-23T02:54:01;29.00;91.90
10344;DHT22;5217;43.960;10.954;2022-07-23T02:56:29;29.00;92.00
10344;DHT22;5217;43.960;10.954;2022-07-23T02:58:58;28.90;92.00
10344;DHT22;5217;43.960;10.954;2022-07-23T03:01:26;29.00;92.10
10344;DHT22;5217;43.960;10.954;2022-07-23T03:03:55;29.00;92.10
10344;DHT22;5217;43.960;10.954;2022-07-23T03:06:25;29.00;92.20
10344;DHT22;5217;43.960;10.954;2022-07-23T03:08:53;29.00;92.20
10344;DHT22;5217;43.960;10.954;2022-07-23T03:11:22;29.00;92.30
10344;DHT22;5217;43.960;10.954;2022-07-23T03:13:50;29.00;92.30
10344;DHT22;5217;43.960;10.954;2022-07-23T03:16:19;28.90;92.40
10344;DHT22;5217;43.960;10.954;2022-07-23T03:18:47;29.00;92.50
10344;DHT22;5217;43.960;10.954;2022-07-23T03:21:16;28.90;92.50
10344;DHT22;5217;43.960;10.954;2022-07-23T03:23:46;28.90;92.50
10344;DHT22;5217;43.960;10.954;2022-07-23T03:26:14;28.90;92.60
10344;DHT22;5217;43.960;10.954;2022-07-23T03:28:42;28.90;92.60
10344;DHT22;5217;43.960;10.954;2022-07-23T03:31:11;28.90;92.60
10344;DHT22;5217;43.960;10.954;2022-07-23T03:33:39;28.90;92.60
10344;DHT22;5217;43.960;10.954;2022-07-23T03:36:09;28.90;92.70
10344;DHT22;5217;43.960;10.954;2022-07-23T03:38:39;28.90;92.80
10344;DHT22;5217;43.960;10.954;2022-07-23T03:41:09;28.90;92.90
10344;DHT22;5217;43.960;10.954;2022-07-23T03:43:38;28.90;92.90
10344;DHT22;5217;43.960;10.954;2022-07-23T03:46:06;28.90;93.00
10344;DHT22;5217;43.960;10.954;2022-07-23T03:48:35;28.80;93.00
10344;DHT22;5217;43.960;10.954;2022-07-23T03:51:03;28.80;93.00
10344;DHT22;5217;43.960;10.954;2022-07-23T03:53:32;28.80;93.10
10344;DHT22;5217;43.960;10.954;2022-07-23T03:56:00;28.80;93.10
10344;DHT22;5217;43.960;10.954;2022-07-23T03:58:30;28.80;93.20
10344;DHT22;5217;43.960;10.954;2022-07-23T04:00:59;28.80;93.20
10344;DHT22;5217;43.960;10.954;2022-07-23T04:03:27;28.80;93.20
10344;DHT22;5217;43.960;10.954;2022-07-23T04:05:56;28.80;93.30
10344;DHT22;5217;43.960;10.954;2022-07-23T04:08:25;28.80;93.30
10344;DHT22;5217;43.960;10.954;2022-07-23T04:10:53;28.80;93.40
10344;DHT22;5217;43.960;10.954;2022-07-23T04:13:22;28.80;93.50
10344;DHT22;5217;43.960;10.954;2022-07-23T04:15:52;28.80;93.50
10344;DHT22;5217;43.960;10.954;2022-07-23T04:18:20;28.80;93.60
10344;DHT22;5217;43.960;10.954;2022-07-23T04:20:51;28.80;93.60
10344;DHT22;5217;43.960;10.954;2022-07-23T04:23:20;28.80;93.80
10344;DHT22;5217;43.960;10.954;2022-07-23T04:25:48;28.80;93.90
10344;DHT22;5217;43.960;10.954;2022-07-23T04:28:17;28.80;94.30
10344;DHT22;5217;43.960;10.954;2022-07-23T04:30:45;28.80;94.40
10344;DHT22;5217;43.960;10.954;2022-07-23T04:33:15;28.80;94.30
10344;DHT22;5217;43.960;10.954;2022-07-23T04:35:44;28.80;94.50
10344;DHT22;5217;43.960;10.954;2022-07-23T04:38:12;28.80;94.60
10344;DHT22;5217;43.960;10.954;2022-07-23T04:40:41;28.80;94.80
10344;DHT22;5217;43.960;10.954;2022-07-23T04:43:09;28.80;95.10
10344;DHT22;5217;43.960;10.954;2022-07-23T04:45:38;28.80;95.10
10344;DHT22;5217;43.960;10.954;2022-07-23T04:48:06;28.80;95.10
10344;DHT22;5217;43.960;10.954;2022-07-23T04:50:37;28.80;95.00
10344;DHT22;5217;43.960;10.954;2022-07-23T04:53:05;28.80;95.00
10344;DHT22;5217;43.960;10.954;2022-07-23T04:55:34;28.80;95.00
10344;DHT22;5217;43.960;10.954;2022-07-23T04:58:02;28.80;94.90
10344;DHT22;5217;43.960;10.954;2022-07-23T05:00:30;28.80;94.90
10344;DHT22;5217;43.960;10.954;2022-07-23T05:02:59;28.80;94.90
10344;DHT22;5217;43.960;10.954;2022-07-23T05:05:27;28.70;94.80
10344;DHT22;5217;43.960;10.954;2022-07-23T05:07:57;28.80;95.00
10344;DHT22;5217;43.960;10.954;2022-07-23T05:10:26;28.80;95.00
10344;DHT22;5217;43.960;10.954;2022-07-23T05:12:54;28.80;95.10
10344;DHT22;5217;43.960;10.954;2022-07-23T05:15:23;28.80;95.10
10344;DHT22;5217;43.960;10.954;2022-07-23T05:17:52;28.80;95.10
10344;DHT22;5217;43.960;10.954;2022-07-23T05:20:20;28.80;95.20
10344;DHT22;5217;43.960;10.954;2022-07-23T05:22:49;28.80;95.40
10344;DHT22;5217;43.960;10.954;2022-07-23T05:25:19;28.80;95.60
10344;DHT22;5217;43.960;10.954;2022-07-23T05:27:47;28.80;95.70
10344;DHT22;5217;43.960;10.954;2022-07-23T05:30:16;28.80;95.70
10344;DHT22;5217;43.960;10.954;2022-07-23T05:32:44;28.80;96.30
10344;DHT22;5217;43.960;10.954;2022-07-23T05:35:13;28.80;96.10
10344;DHT22;5217;43.960;10.954;2022-07-23T05:37:42;28.80;96.20
10344;DHT22;5217;43.960;10.954;2022-07-23T05:40:11;28.80;96.40
10344;DHT22;5217;43.960;10.954;2022-07-23T05:42:41;28.80;96.40
10344;DHT22;5217;43.960;10.954;2022-07-23T05:45:10;28.80;96.50
10344;DHT22;5217;43.960;10.954;2022-07-23T05:47:41;28.80;96.60
10344;DHT22;5217;43.960;10.954;2022-07-23T05:50:10;28.80;96.70
10344;DHT22;5217;43.960;10.954;2022-07-23T05:52:39;28.80;96.70
10344;DHT22;5217;43.960;10.954;2022-07-23T05:55:09;28.80;96.70
10344;DHT22;5217;43.960;10.954;2022-07-23T05:57:37;28.80;96.70
10344;DHT22;5217;43.960;10.954;2022-07-23T06:00:09;28.80;96.70
10344;DHT22;5217;43.960;10.954;2022-07-23T06:02:38;28.80;96.60
10344;DHT22;5217;43.960;10.954;2022-07-23T06:05:08;28.80;96.50
10344;DHT22;5217;43.960;10.954;2022-07-23T06:07:37;28.80;96.50
10344;DHT22;5217;43.960;10.954;2022-07-23T06:10:06;28.80;96.30
10344;DHT22;5217;43.960;10.954;2022-07-23T06:12:35;28.80;96.20
10344;DHT22;5217;43.960;10.954;2022-07-23T06:15:05;28.80;96.00
10344;DHT22;5217;43.960;10.954;2022-07-23T06:17:39;28.80;95.90
10344;DHT22;5217;43.960;10.954;2022-07-23T06:20:09;28.80;95.80
10344;DHT22;5217;43.960;10.954;2022-07-23T06:22:37;28.80;95.80
10344;DHT22;5217;43.960;10.954;2022-07-23T06:25:07;28.80;95.60
10344;DHT22;5217;43.960;10.954;2022-07-23T06:27:45;28.80;95.60
10344;DHT22;5217;43.960;10.954;2022-07-23T06:30:13;28.80;95.70
10344;DHT22;5217;43.960;10.954;2022-07-23T06:32:46;28.80;95.70
10344;DHT22;5217;43.960;10.954;2022-07-23T06:35:14;28.80;95.80
10344;DHT22;5217;43.960;10.954;2022-07-23T06:37:44;28.80;95.90
10344;DHT22;5217;43.960;10.954;2022-07-23T06:40:14;28.80;96.00
10344;DHT22;5217;43.960;10.954;2022-07-23T06:42:42;28.90;96.20
10344;DHT22;5217;43.960;10.954;2022-07-23T06:45:11;28.90;96.30
10344;DHT22;5217;43.960;10.954;2022-07-23T06:47:39;28.90;96.50
10344;DHT22;5217;43.960;10.954;2022-07-23T06:50:10;28.90;96.50
10344;DHT22;5217;43.960;10.954;2022-07-23T06:52:38;28.90;96.80
10344;DHT22;5217;43.960;10.954;2022-07-23T06:55:09;28.90;96.80
10344;DHT22;5217;43.960;10.954;2022-07-23T06:57:37;28.90;97.00
10344;DHT22;5217;43.960;10.954;2022-07-23T07:00:06;28.90;96.90
10344;DHT22;5217;43.960;10.954;2022-07-23T07:02:35;28.90;96.90
10344;DHT22;5217;43.960;10.954;2022-07-23T07:05:05;28.90;97.00
10344;DHT22;5217;43.960;10.954;2022-07-23T07:07:35;28.90;97.10
10344;DHT22;5217;43.960;10.954;2022-07-23T07:10:04;28.90;97.00
10344;DHT22;5217;43.960;10.954;2022-07-23T07:12:39;28.90;97.10
10344;DHT22;5217;43.960;10.954;2022-07-23T07:15:08;29.00;97.10
10344;DHT22;5217;43.960;10.954;2022-07-23T07:17:36;29.00;97.20
10344;DHT22;5217;43.960;10.954;2022-07-23T07:20:06;29.00;97.00
10344;DHT22;5217;43.960;10.954;2022-07-23T07:22:36;28.90;97.10
10344;DHT22;5217;43.960;10.954;2022-07-23T07:25:07;29.00;96.90
10344;DHT22;5217;43.960;10.954;2022-07-23T07:27:36;28.90;96.90
10344;DHT22;5217;43.960;10.954;2022-07-23T07:30:08;29.00;97.00
10344;DHT22;5217;43.960;10.954;2022-07-23T07:32:37;29.00;97.10
10344;DHT22;5217;43.960;10.954;2022-07-23T07:35:22;29.00;97.20
10344;DHT22;5217;43.960;10.954;2022-07-23T07:37:52;29.00;97.20
10344;DHT22;5217;43.960;10.954;2022-07-23T07:40:21;29.00;97.20
10344;DHT22;5217;43.960;10.954;2022-07-23T07:42:51;29.00;97.20
10344;DHT22;5217;43.960;10.954;2022-07-23T07:45:21;29.10;97.30
10344;DHT22;5217;43.960;10.954;2022-07-23T07:47:50;29.10;97.20
10344;DHT22;5217;43.960;10.954;2022-07-23T07:50:20;29.10;97.20
10344;DHT22;5217;43.960;10.954;2022-07-23T07:52:48;29.10;97.20
10344;DHT22;5217;43.960;10.954;2022-07-23T07:55:18;29.10;97.20
10344;DHT22;5217;43.960;10.954;2022-07-23T07:57:47;29.10;97.30
10344;DHT22;5217;43.960;10.954;2022-07-23T08:00:16;29.10;97.40
10344;DHT22;5217;43.960;10.954;2022-07-23T08:02:47;29.10;97.50
10344;DHT22;5217;43.960;10.954;2022-07-23T08:05:19;29.10;97.60
10344;DHT22;5217;43.960;10.954;2022-07-23T08:07:54;29.10;97.60
10344;DHT22;5217;43.960;10.954;2022-07-23T08:10:26;29.20;97.50
10344;DHT22;5217;43.960;10.954;2022-07-23T08:12:55;29.20;97.50
10344;DHT22;5217;43.960;10.954;2022-07-23T08:15:25;29.20;97.60
10344;DHT22;5217;43.960;10.954;2022-07-23T08:17:55;29.20;97.40
10344;DHT22;5217;43.960;10.954;2022-07-23T08:20:25;29.20;97.40
10344;DHT22;5217;43.960;10.954;2022-07-23T08:22:56;29.20;97.30
10344;DHT22;5217;43.960;10.954;2022-07-23T08:25:29;29.30;97.40
10344;DHT22;5217;43.960;10.954;2022-07-23T08:27:59;29.30;97.60
10344;DHT22;5217;43.960;10.954;2022-07-23T08:30:28;29.30;97.60
10344;DHT22;5217;43.960;10.954;2022-07-23T08:32:58;29.30;97.60
10344;DHT22;5217;43.960;10.954;2022-07-23T08:35:29;29.30;97.60
10344;DHT22;5217;43.960;10.954;2022-07-23T08:37:59;29.30;97.30
10344;DHT22;5217;43.960;10.954;2022-07-23T08:40:31;29.30;97.30
10344;DHT22;5217;43.960;10.954;2022-07-23T08:43:00;29.30;97.00
10344;DHT22;5217;43.960;10.954;2022-07-23T08:45:36;29.30;97.00
10344;DHT22;5217;43.960;10.954;2022-07-23T08:48:07;29.40;97.00
10344;DHT22;5217;43.960;10.954;2022-07-23T08:50:37;29.40;97.10
10344;DHT22;5217;43.960;10.954;2022-07-23T08:53:08;29.40;97.10
10344;DHT22;5217;43.960;10.954;2022-07-23T08:55:39;29.40;96.90
10344;DHT22;5217;43.960;10.954;2022-07-23T08:58:07;29.40;97.00
10344;DHT22;5217;43.960;10.954;2022-07-23T09:00:35;29.40;97.00
10344;DHT22;5217;43.960;10.954;2022-07-23T09:03:04;29.50;97.10
10344;DHT22;5217;43.960;10.954;2022-07-23T09:05:32;29.50;96.90
10344;DHT22;5217;43.960;10.954;2022-07-23T09:08:09;29.50;96.80
10344;DHT22;5217;43.960;10.954;2022-07-23T09:10:52;29.50;96.70
10344;DHT22;5217;43.960;10.954;2022-07-23T09:13:31;29.50;96.40
10344;DHT22;5217;43.960;10.954;2022-07-23T09:16:02;29.60;96.30
10344;DHT22;5217;43.960;10.954;2022-07-23T09:18:36;29.60;96.40
10344;DHT22;5217;43.960;10.954;2022-07-23T09:23:55;29.60;96.20
10344;DHT22;5217;43.960;10.954;2022-07-23T09:26:32;29.60;96.10
10344;DHT22;5217;43.960;10.954;2022-07-23T09:29:08;29.60;96.00
10344;DHT22;5217;43.960;10.954;2022-07-23T09:31:46;29.60;95.80
10344;DHT22;5217;43.960;10.954;2022-07-23T09:34:17;29.70;95.80
10344;DHT22;5217;43.960;10.954;2022-07-23T09:36:46;29.70;95.90
10344;DHT22;5217;43.960;10.954;2022-07-23T09:39:16;29.70;96.10
10344;DHT22;5217;43.960;10.954;2022-07-23T09:41:51;29.80;96.30
10344;DHT22;5217;43.960;10.954;2022-07-23T09:44:20;29.80;96.30
10344;DHT22;5217;43.960;10.954;2022-07-23T09:46:59;29.80;96.40
10344;DHT22;5217;43.960;10.954;2022-07-23T09:49:28;29.80;96.50
10344;DHT22;5217;43.960;10.954;2022-07-23T09:51:58;29.80;96.40
10344;DHT22;5217;43.960;10.954;2022-07-23T09:54:30;29.90;96.40
10344;DHT22;5217;43.960;10.954;2022-07-23T09:57:04;29.80;96.60
10344;DHT22;5217;43.960;10.954;2022-07-23T09:59:36;29.90;96.50
10344;DHT22;5217;43.960;10.954;2022-07-23T10:02:06;29.90;96.60
10344;DHT22;5217;43.960;10.954;2022-07-23T10:04:35;29.90;96.60
10344;DHT22;5217;43.960;10.954;2022-07-23T10:07:06;30.00;96.70
10344;DHT22;5217;43.960;10.954;2022-07-23T10:09:36;30.00;97.20
10344;DHT22;5217;43.960;10.954;2022-07-23T10:12:11;30.00;96.70
10344;DHT22;5217;43.960;10.954;2022-07-23T10:14:57;30.00;96.70
10344;DHT22;5217;43.960;10.954;2022-07-23T10:17:27;30.10;96.70
10344;DHT22;5217;43.960;10.954;2022-07-23T10:19:56;30.10;96.80
10344;DHT22;5217;43.960;10.954;2022-07-23T10:22:26;30.10;96.90
10344;DHT22;5217;43.960;10.954;2022-07-23T10:25:03;30.10;96.90
10344;DHT22;5217;43.960;10.954;2022-07-23T10:27:52;30.10;96.90
10344;DHT22;5217;43.960;10.954;2022-07-23T10:30:28;30.10;97.00
10344;DHT22;5217;43.960;10.954;2022-07-23T10:33:12;30.20;96.90
10344;DHT22;5217;43.960;10.954;2022-07-23T10:35:48;30.20;96.90
10344;DHT22;5217;43.960;10.954;2022-07-23T10:38:24;30.20;97.00
10344;DHT22;5217;43.960;10.954;2022-07-23T10:40:55;30.20;96.70
10344;DHT22;5217;43.960;10.954;2022-07-23T10:43:26;30.20;96.20
10344;DHT22;5217;43.960;10.954;2022-07-23T10:45:56;30.30;95.80
10344;DHT22;5217;43.960;10.954;2022-07-23T10:48:42;30.30;93.80
10344;DHT22;5217;43.960;10.954;2022-07-23T10:51:14;30.30;93.50
10344;DHT22;5217;43.960;10.954;2022-07-23T10:53:58;30.40;93.30
10344;DHT22;5217;43.960;10.954;2022-07-23T10:56:50;30.40;93.10
10344;DHT22;5217;43.960;10.954;2022-07-23T10:59:20;30.40;92.80
10344;DHT22;5217;43.960;10.954;2022-07-23T11:01:49;30.40;92.40
10344;DHT22;5217;43.960;10.954;2022-07-23T11:04:19;30.50;92.40
10344;DHT22;5217;43.960;10.954;2022-07-23T11:07:06;30.50;92.20
10344;DHT22;5217;43.960;10.954;2022-07-23T11:09:39;30.60;92.00
10344;DHT22;5217;43.960;10.954;2022-07-23T11:12:35;30.60;91.60
10344;DHT22;5217;43.960;10.954;2022-07-23T11:15:07;30.60;91.40
10344;DHT22;5217;43.960;10.954;2022-07-23T11:17:37;30.70;91.10
10344;DHT22;5217;43.960;10.954;2022-07-23T11:20:27;30.70;90.80
10344;DHT22;5217;43.960;10.954;2022-07-23T11:22:57;30.70;90.40
10344;DHT22;5217;43.960;10.954;2022-07-23T11:25:33;30.70;90.30
10344;DHT22;5217;43.960;10.954;2022-07-23T11:28:13;30.70;90.10
10344;DHT22;5217;43.960;10.954;2022-07-23T11:30:45;30.80;90.20
10344;DHT22;5217;43.960;10.954;2022-07-23T11:33:20;30.80;90.00
10344;DHT22;5217;43.960;10.954;2022-07-23T11:36:01;30.80;89.90
10344;DHT22;5217;43.960;10.954;2022-07-23T11:38:31;30.90;90.00
10344;DHT22;5217;43.960;10.954;2022-07-23T11:41:00;30.90;87.70
10344;DHT22;5217;43.960;10.954;2022-07-23T11:43:28;30.90;88.10
10344;DHT22;5217;43.960;10.954;2022-07-23T11:45:59;31.00;87.30
10344;DHT22;5217;43.960;10.954;2022-07-23T11:48:29;31.00;87.20
10344;DHT22;5217;43.960;10.954;2022-07-23T11:51:05;31.00;87.00
10344;DHT22;5217;43.960;10.954;2022-07-23T11:53:34;31.10;83.80
10344;DHT22;5217;43.960;10.954;2022-07-23T11:56:06;31.10;81.50
10344;DHT22;5217;43.960;10.954;2022-07-23T11:58:35;31.10;81.30
10344;DHT22;5217;43.960;10.954;2022-07-23T12:01:05;31.10;77.70
10344;DHT22;5217;43.960;10.954;2022-07-23T12:03:49;31.20;75.90
10344;DHT22;5217;43.960;10.954;2022-07-23T12:06:18;31.20;77.10
10344;DHT22;5217;43.960;10.954;2022-07-23T12:08:46;31.20;74.40
10344;DHT22;5217;43.960;10.954;2022-07-23T12:11:15;31.30;74.50
10344;DHT22;5217;43.960;10.954;2022-07-23T12:13:43;31.30;73.90
10344;DHT22;5217;43.960;10.954;2022-07-23T12:16:13;31.30;74.20
10344;DHT22;5217;43.960;10.954;2022-07-23T12:18:41;31.30;72.60
10344;DHT22;5217;43.960;10.954;2022-07-23T12:21:10;31.30;71.30
10344;DHT22;5217;43.960;10.954;2022-07-23T12:23:39;31.40;70.30
10344;DHT22;5217;43.960;10.954;2022-07-23T12:26:07;31.40;69.00
10344;DHT22;5217;43.960;10.954;2022-07-23T12:28:38;31.40;66.80
10344;DHT22;5217;43.960;10.954;2022-07-23T12:31:08;31.50;67.10
10344;DHT22;5217;43.960;10.954;2022-07-23T12:33:40;31.50;67.60
10344;DHT22;5217;43.960;10.954;2022-07-23T12:36:09;31.50;66.80
10344;DHT22;5217;43.960;10.954;2022-07-23T12:38:39;31.50;66.70
10344;DHT22;5217;43.960;10.954;2022-07-23T12:41:09;31.50;65.70
10344;DHT22;5217;43.960;10.954;2022-07-23T12:43:38;31.50;66.40
10344;DHT22;5217;43.960;10.954;2022-07-23T12:46:09;31.60;67.40
10344;DHT22;5217;43.960;10.954;2022-07-23T12:48:49;31.60;67.50
10344;DHT22;5217;43.960;10.954;2022-07-23T12:51:21;31.60;67.80
10344;DHT22;5217;43.960;10.954;2022-07-23T12:53:53;31.70;68.60
10344;DHT22;5217;43.960;10.954;2022-07-23T12:56:27;31.70;68.20
10344;DHT22;5217;43.960;10.954;2022-07-23T12:58:57;31.70;68.60
10344;DHT22;5217;43.960;10.954;2022-07-23T13:01:29;31.70;68.30
10344;DHT22;5217;43.960;10.954;2022-07-23T13:04:05;31.80;68.00
10344;DHT22;5217;43.960;10.954;2022-07-23T13:06:42;31.80;67.00
10344;DHT22;5217;43.960;10.954;2022-07-23T13:09:13;31.80;67.40
10344;DHT22;5217;43.960;10.954;2022-07-23T13:11:42;31.80;67.80
10344;DHT22;5217;43.960;10.954;2022-07-23T13:14:14;31.80;67.80
10344;DHT22;5217;43.960;10.954;2022-07-23T13:16:43;31.80;68.10
10344;DHT22;5217;43.960;10.954;2022-07-23T13:19:16;31.80;69.00
10344;DHT22;5217;43.960;10.954;2022-07-23T13:21:45;31.90;68.70
10344;DHT22;5217;43.960;10.954;2022-07-23T13:24:14;31.90;68.10
10344;DHT22;5217;43.960;10.954;2022-07-23T13:26:42;31.90;67.00
10344;DHT22;5217;43.960;10.954;2022-07-23T13:29:13;31.90;68.20
10344;DHT22;5217;43.960;10.954;2022-07-23T13:31:43;31.90;69.60
10344;DHT22;5217;43.960;10.954;2022-07-23T13:34:12;32.00;70.40
10344;DHT22;5217;43.960;10.954;2022-07-23T13:36:42;32.00;70.30
10344;DHT22;5217;43.960;10.954;2022-07-23T13:39:11;32.00;69.20
10344;DHT22;5217;43.960;10.954;2022-07-23T13:41:41;32.00;68.50
10344;DHT22;5217;43.960;10.954;2022-07-23T13:44:16;32.00;69.10
10344;DHT22;5217;43.960;10.954;2022-07-23T13:46:48;32.10;70.60
10344;DHT22;5217;43.960;10.954;2022-07-23T13:49:17;32.00;68.80
10344;DHT22;5217;43.960;10.954;2022-07-23T13:51:47;32.10;69.00
10344;DHT22;5217;43.960;10.954;2022-07-23T13:54:15;32.10;71.20
10344;DHT22;5217;43.960;10.954;2022-07-23T13:56:44;32.10;71.50
10344;DHT22;5217;43.960;10.954;2022-07-23T13:59:12;32.10;71.40
10344;DHT22;5217;43.960;10.954;2022-07-23T14:01:41;32.10;71.00
10344;DHT22;5217;43.960;10.954;2022-07-23T14:04:29;32.10;70.90
10344;DHT22;5217;43.960;10.954;2022-07-23T14:06:59;32.20;71.50
10344;DHT22;5217;43.960;10.954;2022-07-23T14:09:28;32.20;71.10
10344;DHT22;5217;43.960;10.954;2022-07-23T14:12:00;32.20;71.60
10344;DHT22;5217;43.960;10.954;2022-07-23T14:14:29;32.20;71.50
10344;DHT22;5217;43.960;10.954;2022-07-23T14:16:57;32.20;70.00
10344;DHT22;5217;43.960;10.954;2022-07-23T14:19:28;32.20;70.20
10344;DHT22;5217;43.960;10.954;2022-07-23T14:21:58;32.20;70.00
10344;DHT22;5217;43.960;10.954;2022-07-23T14:24:27;32.20;69.70
10344;DHT22;5217;43.960;10.954;2022-07-23T14:27:00;32.20;68.70
10344;DHT22;5217;43.960;10.954;2022-07-23T14:29:29;32.30;69.80
10344;DHT22;5217;43.960;10.954;2022-07-23T14:31:58;32.30;68.50
10344;DHT22;5217;43.960;10.954;2022-07-23T14:34:28;32.30;67.60
10344;DHT22;5217;43.960;10.954;2022-07-23T14:36:59;32.30;66.10
10344;DHT22;5217;43.960;10.954;2022-07-23T14:39:27;32.30;65.90
10344;DHT22;5217;43.960;10.954;2022-07-23T14:41:56;32.30;66.30
10344;DHT22;5217;43.960;10.954;2022-07-23T14:44:25;32.30;66.30
10344;DHT22;5217;43.960;10.954;2022-07-23T14:46:54;32.30;65.00
10344;DHT22;5217;43.960;10.954;2022-07-23T14:49:23;32.40;65.10
10344;DHT22;5217;43.960;10.954;2022-07-23T14:51:54;32.40;65.40
10344;DHT22;5217;43.960;10.954;2022-07-23T14:54:25;32.40;64.70
10344;DHT22;5217;43.960;10.954;2022-07-23T14:56:54;32.40;64.10
10344;DHT22;5217;43.960;10.954;2022-07-23T14:59:23;32.40;63.20
10344;DHT22;5217;43.960;10.954;2022-07-23T15:01:52;32.40;64.10
10344;DHT22;5217;43.960;10.954;2022-07-23T15:04:23;32.40;64.10
10344;DHT22;5217;43.960;10.954;2022-07-23T15:07:03;32.50;64.20
10344;DHT22;5217;43.960;10.954;2022-07-23T15:09:33;32.50;64.40
10344;DHT22;5217;43.960;10.954;2022-07-23T15:12:02;32.50;65.70
10344;DHT22;5217;43.960;10.954;2022-07-23T15:14:33;32.40;65.50
10344;DHT22;5217;43.960;10.954;2022-07-23T15:17:02;32.50;66.40
10344;DHT22;5217;43.960;10.954;2022-07-23T15:19:30;32.50;66.00
10344;DHT22;5217;43.960;10.954;2022-07-23T15:21:59;32.50;64.70
10344;DHT22;5217;43.960;10.954;2022-07-23T15:24:28;32.50;65.20
10344;DHT22;5217;43.960;10.954;2022-07-23T15:26:58;32.50;65.90
10344;DHT22;5217;43.960;10.954;2022-07-23T15:29:26;32.50;67.30
10344;DHT22;5217;43.960;10.954;2022-07-23T15:31:55;32.50;67.70
10344;DHT22;5217;43.960;10.954;2022-07-23T15:34:25;32.50;67.40
10344;DHT22;5217;43.960;10.954;2022-07-23T15:36:53;32.50;66.40
10344;DHT22;5217;43.960;10.954;2022-07-23T15:39:22;32.50;66.40
10344;DHT22;5217;43.960;10.954;2022-07-23T15:41:51;32.50;66.90
10344;DHT22;5217;43.960;10.954;2022-07-23T15:44:21;32.50;67.80
10344;DHT22;5217;43.960;10.954;2022-07-23T15:46:55;32.50;68.00
10344;DHT22;5217;43.960;10.954;2022-07-23T15:49:25;32.50;68.70
10344;DHT22;5217;43.960;10.954;2022-07-23T15:51:54;32.50;69.30
10344;DHT22;5217;43.960;10.954;2022-07-23T15:54:24;32.50;70.00